Time;durP1;ratioP1;P1;durP2;ratioP2;P2;SDS_P1;SDS_P2;PMS_P1;PMS_P2;Temp;Humidity;BMP_temperature;BMP_pressure;BME280_temperature;BME280_humidity;BME280_pressure;Samples;Min_cycle;Max_cycle;Signal;HPM_P1;HPM_P2
2023/07/21 00:00:38;;;;;;;11.37;5.23;;;;;;;;;;6252372;22;20004;-89
2023/07/21 00:03:05;;;;;;;7.78;4.45;;;;;;;;;;6250364;22;20098;-89
2023/07/21 00:05:31;;;;;;;8.18;4.28;;;;;;;;;;6249785;22;20018;-89
2023/07/21 00:07:57;;;;;;;7.35;3.95;;;;;;;;;;6252362;22;20043;-90
2023/07/21 00:10:24;;;;;;;9.52;4.60;;;;;;;;;;6275013;22;20299;-90
2023/07/21 00:12:50;;;;;;;8.88;4.07;;;;;;;;;;6247597;22;20419;-90
2023/07/21 00:15:18;;;;;;;10.05;4.57;;;;;;;;;;6248192;22;20382;-89
2023/07/21 00:17:46;;;;;;;8.30;4.32;;;;;;;;;;6250778;22;20011;-90
2023/07/21 00:20:19;;;;;;;10.90;4.47;;;;;;;;;;6274626;22;20449;-89
2023/07/21 00:23:15;;;;;;;12.07;4.35;;;;;;;;;;6274056;22;20097;-88
2023/07/21 00:25:41;;;;;;;7.37;4.27;;;;;;;;;;6259882;22;20066;-89
2023/07/21 00:28:07;;;;;;;12.40;4.30;;;;;;;;;;6249823;22;20988;-90
2023/07/21 00:30:37;;;;;;;9.68;4.32;;;;;;;;;;6249804;22;20015;-89
2023/07/21 00:33:03;;;;;;;9.25;4.05;;;;;;;;;;6277818;22;20315;-89
2023/07/21 00:35:31;;;;;;;11.88;4.55;;;;;;;;;;6275539;22;20022;-89
2023/07/21 00:38:00;;;;;;;7.88;4.30;;;;;;;;;;6276276;22;20015;-89
2023/07/21 00:40:27;;;;;;;9.25;4.60;;;;;;;;;;6275228;22;20091;-89
2023/07/21 00:42:53;;;;;;;6.22;3.90;;;;;;;;;;6278168;22;20058;-90
2023/07/21 00:45:20;;;;;;;9.90;4.18;;;;;;;;;;6272817;22;20465;-87
2023/07/21 00:47:46;;;;;;;8.13;4.53;;;;;;;;;;6273806;22;20342;-86
2023/07/21 00:50:14;;;;;;;12.20;4.63;;;;;;;;;;6272632;22;20004;-89
2023/07/21 00:52:40;;;;;;;11.10;4.43;;;;;;;;;;6278992;22;20070;-89
2023/07/21 00:55:07;;;;;;;7.30;4.32;;;;;;;;;;6275857;22;20004;-89
2023/07/21 00:57:34;;;;;;;9.48;4.07;;;;;;;;;;6277700;22;20004;-89
2023/07/21 01:00:13;;;;;;;13.02;5.30;;;;;;;;;;6277054;22;20014;-89
2023/07/21 01:02:40;;;;;;;9.73;3.72;;;;;;;;;;6276872;22;20018;-90
2023/07/21 01:05:07;;;;;;;10.20;4.57;;;;;;;;;;6277984;22;20007;-89
2023/07/21 01:07:34;;;;;;;11.13;4.97;;;;;;;;;;6276872;22;20031;-88
2023/07/21 01:10:01;;;;;;;12.15;5.72;;;;;;;;;;6225730;22;20023;-87
2023/07/21 01:12:34;;;;;;;14.27;6.10;;;;;;;;;;6248063;22;20004;-90
2023/07/21 01:15:00;;;;;;;12.85;5.55;;;;;;;;;;6250678;22;20007;-86
2023/07/21 01:17:29;;;;;;;10.18;5.40;;;;;;;;;;6248345;22;20014;-86
2023/07/21 01:19:56;;;;;;;13.70;6.10;;;;;;;;;;6226002;22;20046;-87
2023/07/21 01:22:25;;;;;;;12.32;5.80;;;;;;;;;;6249814;22;20012;-87
2023/07/21 01:25:12;;;;;;;13.95;5.82;;;;;;;;;;6251231;22;20429;-88
2023/07/21 01:27:44;;;;;;;13.95;6.13;;;;;;;;;;6250535;22;20019;-88
2023/07/21 01:30:11;;;;;;;13.80;5.47;;;;;;;;;;6250441;22;20019;-87
2023/07/21 01:32:41;;;;;;;11.75;6.38;;;;;;;;;;6252508;22;20007;-88
2023/07/21 01:35:09;;;;;;;13.45;6.20;;;;;;;;;;6226335;22;20012;-88
2023/07/21 01:37:40;;;;;;;11.15;5.55;;;;;;;;;;6278496;22;20004;-88
2023/07/21 01:40:09;;;;;;;13.45;5.10;;;;;;;;;;6252148;22;20472;-87
2023/07/21 01:42:36;;;;;;;10.60;4.95;;;;;;;;;;6249275;22;20011;-87
2023/07/21 01:45:02;;;;;;;11.68;5.03;;;;;;;;;;6223916;22;20015;-88
2023/07/21 01:47:32;;;;;;;8.40;4.60;;;;;;;;;;6224586;22;20630;-88
2023/07/21 01:49:59;;;;;;;8.38;4.22;;;;;;;;;;6224530;22;20039;-88
2023/07/21 01:52:30;;;;;;;11.93;4.25;;;;;;;;;;6248435;22;20445;-88
2023/07/21 01:55:04;;;;;;;11.02;5.35;;;;;;;;;;6251147;22;20014;-88
2023/07/21 01:57:36;;;;;;;10.00;4.95;;;;;;;;;;6250296;22;20019;-88
2023/07/21 02:00:06;;;;;;;11.93;4.82;;;;;;;;;;6250874;22;20450;-87
2023/07/21 02:02:33;;;;;;;12.57;4.70;;;;;;;;;;6249356;22;20008;-88
2023/07/21 02:04:59;;;;;;;8.13;4.22;;;;;;;;;;6250462;22;20163;-88
2023/07/21 02:07:44;;;;;;;8.98;4.72;;;;;;;;;;6224235;22;20012;-89
2023/07/21 02:10:18;;;;;;;14.27;4.07;;;;;;;;;;6273594;22;20066;-89
2023/07/21 02:12:44;;;;;;;8.88;4.18;;;;;;;;;;6273901;22;20451;-88
2023/07/21 02:15:23;;;;;;;9.27;4.43;;;;;;;;;;6248647;22;20007;-87
2023/07/21 02:17:49;;;;;;;11.52;4.50;;;;;;;;;;6248810;22;20012;-87
2023/07/21 02:23:13;;;;;;;6.68;3.95;;;;;;;;;;6219453;22;20472;-88
2023/07/21 02:25:41;;;;;;;7.57;4.47;;;;;;;;;;6250333;22;20016;-88
2023/07/21 02:28:11;;;;;;;7.00;3.88;;;;;;;;;;6274002;22;20058;-89
2023/07/21 02:30:39;;;;;;;12.85;3.80;;;;;;;;;;6250479;22;20004;-87
2023/07/21 02:33:12;;;;;;;9.82;4.40;;;;;;;;;;6276062;22;20004;-87
2023/07/21 02:36:14;;;;;;;7.88;4.07;;;;;;;;;;6274529;22;20016;-87
2023/07/21 02:38:40;;;;;;;9.55;4.07;;;;;;;;;;6273675;22;20012;-86
2023/07/21 02:41:08;;;;;;;7.82;4.03;;;;;;;;;;6270963;22;20333;-86
2023/07/21 02:43:47;;;;;;;9.77;3.88;;;;;;;;;;6274717;22;20321;-87
2023/07/21 02:46:14;;;;;;;7.72;4.03;;;;;;;;;;6273165;22;20594;-88
2023/07/21 02:49:01;;;;;;;9.63;3.90;;;;;;;;;;6273971;22;20540;-87
2023/07/21 02:51:27;;;;;;;12.05;3.88;;;;;;;;;;6274644;22;20321;-88
2023/07/21 02:53:53;;;;;;;5.78;3.88;;;;;;;;;;6247673;22;20349;-87
2023/07/21 02:56:19;;;;;;;8.63;4.18;;;;;;;;;;6246461;22;20004;-88
2023/07/21 02:58:45;;;;;;;8.70;3.75;;;;;;;;;;6272390;22;20015;-88
2023/07/21 03:01:12;;;;;;;7.70;3.72;;;;;;;;;;6271802;22;20073;-88
2023/07/21 03:03:39;;;;;;;13.20;3.35;;;;;;;;;;6274683;22;20035;-89
2023/07/21 03:06:13;;;;;;;9.85;4.25;;;;;;;;;;6249319;22;20075;-89
2023/07/21 03:08:39;;;;;;;8.05;4.53;;;;;;;;;;6275546;22;20027;-88
2023/07/21 03:11:28;;;;;;;8.52;4.15;;;;;;;;;;6274934;22;20011;-88
2023/07/21 03:13:53;;;;;;;7.65;4.03;;;;;;;;;;6271125;22;20035;-89
2023/07/21 03:16:43;;;;;;;10.15;3.95;;;;;;;;;;6253562;22;20012;-89
2023/07/21 03:19:26;;;;;;;7.78;3.80;;;;;;;;;;6279773;22;20310;-89
2023/07/21 03:21:54;;;;;;;6.57;4.00;;;;;;;;;;6279033;22;20014;-88
2023/07/21 03:24:20;;;;;;;8.40;3.72;;;;;;;;;;6281491;22;20012;-88
2023/07/21 03:26:47;;;;;;;7.35;3.88;;;;;;;;;;6282276;22;20299;-88
2023/07/21 03:31:59;;;;;;;;;;;;;;;;;;6272534;22;20062;-89
2023/07/21 03:34:26;;;;;;;9.90;3.58;;;;;;;;;;6278110;22;19903;-88
2023/07/21 03:36:53;;;;;;;7.03;3.70;;;;;;;;;;6280434;22;20476;-90
2023/07/21 03:39:24;;;;;;;8.98;3.88;;;;;;;;;;6254274;22;20008;-88
2023/07/21 03:41:51;;;;;;;10.15;3.65;;;;;;;;;;6254426;22;20012;-89
2023/07/21 03:44:21;;;;;;;6.20;3.70;;;;;;;;;;6254130;22;20463;-89
2023/07/21 03:46:48;;;;;;;9.20;3.95;;;;;;;;;;6250337;22;20037;-88
2023/07/21 03:49:14;;;;;;;9.98;4.10;;;;;;;;;;6252648;22;20016;-87
2023/07/21 03:51:40;;;;;;;9.60;4.20;;;;;;;;;;6276582;22;20000;-87
2023/07/21 03:54:07;;;;;;;11.50;4.47;;;;;;;;;;6253099;22;20725;-87
2023/07/21 03:56:33;;;;;;;9.30;4.38;;;;;;;;;;6247836;22;20019;-86
2023/07/21 03:59:03;;;;;;;9.27;4.25;;;;;;;;;;6271232;22;20016;-86
2023/07/21 04:01:29;;;;;;;8.02;3.80;;;;;;;;;;6274791;22;20323;-87
2023/07/21 04:04:03;;;;;;;6.82;3.78;;;;;;;;;;6222681;22;20026;-87
2023/07/21 04:06:30;;;;;;;9.23;4.45;;;;;;;;;;6274503;22;20058;-87
2023/07/21 04:09:05;;;;;;;10.07;4.32;;;;;;;;;;6248470;22;20019;-88
2023/07/21 04:11:43;;;;;;;9.95;4.68;;;;;;;;;;6273895;22;20015;-88
2023/07/21 04:14:09;;;;;;;12.35;5.32;;;;;;;;;;6246151;22;20069;-88
2023/07/21 04:16:35;;;;;;;9.35;5.15;;;;;;;;;;6273213;22;20011;-87
2023/07/21 04:19:07;;;;;;;11.32;4.60;;;;;;;;;;6246974;22;20123;-89
2023/07/21 04:21:33;;;;;;;9.70;4.57;;;;;;;;;;6273105;22;20229;-88
2023/07/21 04:24:03;;;;;;;10.25;4.57;;;;;;;;;;6249573;22;20039;-88
2023/07/21 04:26:30;;;;;;;10.95;4.35;;;;;;;;;;6246405;22;20007;-88
2023/07/21 04:28:56;;;;;;;13.18;5.70;;;;;;;;;;6273557;22;20011;-87
2023/07/21 04:31:28;;;;;;;6.40;4.05;;;;;;;;;;6247260;22;20104;-88
2023/07/21 04:33:55;;;;;;;8.23;4.53;;;;;;;;;;6273234;22;20003;-88
2023/07/21 04:36:22;;;;;;;7.35;4.45;;;;;;;;;;6270894;22;20004;-87
2023/07/21 04:38:48;;;;;;;9.35;4.72;;;;;;;;;;6274092;22;20110;-88
2023/07/21 04:41:15;;;;;;;10.55;4.60;;;;;;;;;;6274678;22;20004;-87
2023/07/21 04:43:41;;;;;;;8.85;4.30;;;;;;;;;;6248758;22;20008;-87
2023/07/21 04:46:09;;;;;;;12.70;5.00;;;;;;;;;;6273677;22;20045;-87
2023/07/21 04:48:35;;;;;;;13.30;4.85;;;;;;;;;;6276461;22;20000;-88
2023/07/21 04:51:04;;;;;;;10.18;4.65;;;;;;;;;;6273785;22;20010;-88
2023/07/21 04:53:31;;;;;;;9.13;5.15;;;;;;;;;;6252454;22;20397;-88
2023/07/21 04:55:57;;;;;;;12.45;5.68;;;;;;;;;;6253675;22;20004;-88
2023/07/21 04:58:27;;;;;;;13.48;5.82;;;;;;;;;;6274922;22;20012;-87
2023/07/21 05:01:04;;;;;;;;;;;;;;;;;;;;;
2023/07/21 05:03:32;;;;;;;10.85;4.68;;;;;;;;;;6278589;22;20036;-89
2023/07/21 05:06:05;;;;;;;18.00;4.70;;;;;;;;;;6258601;22;20008;-86
2023/07/21 05:08:46;;;;;;;13.65;4.25;;;;;;;;;;6258260;22;20019;-88
2023/07/21 05:11:22;;;;;;;12.45;4.32;;;;;;;;;;6257609;22;20023;-86
2023/07/21 05:13:56;;;;;;;7.10;4.65;;;;;;;;;;6254790;23;20086;-86
2023/07/21 05:20:03;;;;;;;8.98;3.70;;;;;;;;;;6226643;23;20062;-85
2023/07/21 05:22:38;;;;;;;6.13;3.08;;;;;;;;;;6227967;23;20008;-87
2023/07/21 05:25:07;;;;;;;6.53;3.40;;;;;;;;;;6209240;23;20028;-87
2023/07/21 05:27:36;;;;;;;9.38;3.25;;;;;;;;;;6231985;23;20004;-87
2023/07/21 05:30:13;;;;;;;9.20;3.08;;;;;;;;;;6205864;23;20039;-86
2023/07/21 05:32:44;;;;;;;7.47;3.00;;;;;;;;;;6234935;23;20023;-87
2023/07/21 05:35:16;;;;;;;4.90;2.45;;;;;;;;;;6257075;23;20003;-87
2023/07/21 05:37:42;;;;;;;5.80;2.67;;;;;;;;;;6235127;23;20000;-85
2023/07/21 05:40:10;;;;;;;11.02;2.40;;;;;;;;;;6211038;23;20012;-86
2023/07/21 05:42:50;;;;;;;;;;;;;;;;;;;;;
2023/07/21 05:45:19;;;;;;;10.88;2.50;;;;;;;;;;6256584;23;20478;-87
2023/07/21 05:47:46;;;;;;;7.45;2.72;;;;;;;;;;6210861;23;20271;-87
2023/07/21 05:50:20;;;;;;;7.88;3.00;;;;;;;;;;6235800;23;20076;-86
2023/07/21 05:52:54;;;;;;;10.38;3.15;;;;;;;;;;6233907;23;20008;-85
2023/07/21 05:55:29;;;;;;;8.68;2.33;;;;;;;;;;6238234;23;19996;-87
2023/07/21 05:57:56;;;;;;;6.82;3.40;;;;;;;;;;6271446;22;20011;-87
2023/07/21 06:03:05;;;;;;;;;;;;;;;;;;6235780;22;20062;-85
2023/07/21 06:05:36;;;;;;;8.13;2.58;;;;;;;;;;6199802;23;19904;-85
2023/07/21 06:08:13;;;;;;;3.35;1.75;;;;;;;;;;6203172;23;20010;-84
2023/07/21 06:10:42;;;;;;;4.13;2.20;;;;;;;;;;6197166;23;20001;-85
2023/07/21 06:17:22;;;;;;;;;;;;;;;;;;;;;
2023/07/21 06:19:34;;;;;;;10.07;2.00;;;;;;;;;;6209985;23;20075;-87
2023/07/21 06:22:00;;;;;;;5.88;2.47;;;;;;;;;;6175997;23;20009;-86
2023/07/21 06:24:29;;;;;;;6.50;3.10;;;;;;;;;;6173345;23;20023;-87
2023/07/21 06:27:01;;;;;;;7.13;2.00;;;;;;;;;;6201127;23;20012;-86
2023/07/21 06:29:29;;;;;;;3.15;1.65;;;;;;;;;;6173688;23;20015;-86
2023/07/21 06:31:56;;;;;;;4.47;1.70;;;;;;;;;;6172612;23;20004;-86
2023/07/21 06:34:27;;;;;;;4.50;1.70;;;;;;;;;;6166530;23;20013;-87
2023/07/21 06:36:54;;;;;;;5.63;2.13;;;;;;;;;;6167989;23;20087;-87
2023/07/21 06:39:22;;;;;;;3.75;1.88;;;;;;;;;;6191817;23;20111;-86
2023/07/21 06:41:49;;;;;;;3.35;1.60;;;;;;;;;;6169169;23;20100;-87
2023/07/21 06:44:20;;;;;;;3.67;1.90;;;;;;;;;;6169313;23;20013;-86
2023/07/21 06:46:47;;;;;;;1.50;1.27;;;;;;;;;;6196525;23;20008;-86
2023/07/21 06:49:20;;;;;;;3.55;2.05;;;;;;;;;;6194358;23;20055;-86
2023/07/21 06:51:46;;;;;;;3.42;1.40;;;;;;;;;;6193714;23;20012;-87
2023/07/21 06:54:16;;;;;;;3.15;1.55;;;;;;;;;;6169867;23;20077;-86
2023/07/21 06:56:42;;;;;;;3.10;1.63;;;;;;;;;;6170261;23;20012;-86
2023/07/21 06:59:08;;;;;;;2.47;1.58;;;;;;;;;;6170672;23;20075;-87
2023/07/21 07:01:49;;;;;;;2.90;1.40;;;;;;;;;;6205527;22;20095;-86
2023/07/21 07:04:22;;;;;;;2.08;1.30;;;;;;;;;;6170281;23;20012;-86
2023/07/21 07:06:48;;;;;;;5.00;1.67;;;;;;;;;;6193593;23;20039;-86
2023/07/21 07:09:24;;;;;;;3.08;1.02;;;;;;;;;;6168491;23;20009;-87
2023/07/21 07:11:57;;;;;;;2.35;1.70;;;;;;;;;;6196146;23;20005;-85
2023/07/21 07:14:23;;;;;;;3.92;1.77;;;;;;;;;;6168239;23;20013;-84
2023/07/21 07:16:55;;;;;;;1.60;1.20;;;;;;;;;;6169532;23;20004;-85
2023/07/21 07:19:25;;;;;;;1.38;1.08;;;;;;;;;;6196324;23;20078;-84
2023/07/21 07:21:51;;;;;;;4.15;1.17;;;;;;;;;;6221567;23;20076;-86
2023/07/21 07:24:20;;;;;;;1.52;1.17;;;;;;;;;;6170865;23;20012;-86
2023/07/21 07:26:46;;;;;;;2.00;1.20;;;;;;;;;;6170984;23;20016;-86
2023/07/21 07:29:24;;;;;;;1.70;1.05;;;;;;;;;;6170764;23;20012;-86
2023/07/21 07:31:50;;;;;;;1.02;0.93;;;;;;;;;;6197976;23;20103;-85
2023/07/21 07:34:17;;;;;;;1.38;1.08;;;;;;;;;;6174869;23;20454;-86
2023/07/21 07:36:43;;;;;;;4.88;1.08;;;;;;;;;;6177084;23;20013;-85
2023/07/21 07:39:11;;;;;;;1.10;1.00;;;;;;;;;;6174706;23;20084;-86
2023/07/21 07:41:38;;;;;;;2.97;1.40;;;;;;;;;;6174675;23;20035;-85
2023/07/21 07:44:08;;;;;;;4.38;1.30;;;;;;;;;;6173854;23;20020;-85
2023/07/21 07:46:34;;;;;;;3.60;1.50;;;;;;;;;;6195958;23;20012;-85
2023/07/21 07:49:04;;;;;;;2.85;1.45;;;;;;;;;;6172470;23;20016;-86
2023/07/21 07:51:30;;;;;;;2.15;1.20;;;;;;;;;;6174403;23;20013;-85
2023/07/21 07:54:01;;;;;;;1.88;1.30;;;;;;;;;;6170966;23;20009;-85
2023/07/21 07:56:36;;;;;;;4.38;1.30;;;;;;;;;;6172807;23;20009;-86
2023/07/21 07:59:02;;;;;;;2.70;1.08;;;;;;;;;;6195727;23;20014;-86
2023/07/21 08:01:29;;;;;;;3.72;1.30;;;;;;;;;;6196804;23;20187;-85
2023/07/21 08:03:56;;;;;;;2.03;1.48;;;;;;;;;;6227712;22;20031;-86
2023/07/21 08:06:24;;;;;;;3.72;1.38;;;;;;;;;;6201996;23;20031;-85
2023/07/21 08:08:57;;;;;;;4.20;1.20;;;;;;;;;;6230378;23;20110;-85
2023/07/21 08:11:24;;;;;;;3.90;1.20;;;;;;;;;;6202106;23;20075;-86
2023/07/21 08:13:51;;;;;;;3.05;1.38;;;;;;;;;;6225532;23;20004;-85
2023/07/21 08:16:25;;;;;;;47.33;4.30;;;;;;;;;;6203921;23;20064;-86
2023/07/21 08:21:40;;;;;;;2.20;1.30;;;;;;;;;;6222722;23;20008;-87
2023/07/21 08:24:10;;;;;;;6.63;1.63;;;;;;;;;;6232479;23;20022;-86
2023/07/21 08:26:36;;;;;;;2.13;1.35;;;;;;;;;;6229824;23;20068;-86
2023/07/21 08:29:10;;;;;;;28.35;2.67;;;;;;;;;;6233991;23;20004;-86
2023/07/21 08:31:43;;;;;;;13.07;2.25;;;;;;;;;;6209563;23;20008;-86
2023/07/21 08:37:15;;;;;;;43.45;3.55;;;;;;;;;;6100932;23;20065;-86
2023/07/21 08:39:41;;;;;;;2.33;1.40;;;;;;;;;;6197590;23;20008;-86
2023/07/21 08:42:12;;;;;;;139.10;10.07;;;;;;;;;;6200595;23;20005;-86
2023/07/21 08:44:39;;;;;;;2.97;1.58;;;;;;;;;;6254527;23;20008;-86
2023/07/21 08:47:06;;;;;;;10.32;2.22;;;;;;;;;;6205140;23;20217;-86
2023/07/21 08:49:38;;;;;;;16.63;2.13;;;;;;;;;;6233852;23;20111;-86
2023/07/21 08:52:41;;;;;;;;;;;;;;;;;;;;;
2023/07/21 08:55:24;;;;;;;3.17;1.80;;;;;;;;;;6205793;23;20007;-86
2023/07/21 09:01:04;;;;;;;3.30;1.73;;;;;;;;;;6170450;23;20005;-86
2023/07/21 09:03:53;;;;;;;3.58;1.40;;;;;;;;;;6173588;22;20349;-87
2023/07/21 09:06:26;;;;;;;2.92;1.92;;;;;;;;;;6172209;23;19989;-87
2023/07/21 09:09:14;;;;;;;1.77;1.50;;;;;;;;;;6168921;23;20100;-87
2023/07/21 09:15:09;;;;;;;3.58;1.20;;;;;;;;;;6131788;23;20043;-86
2023/07/21 09:17:46;;;;;;;1.90;1.63;;;;;;;;;;6238150;23;20000;-86
2023/07/21 09:20:46;;;;;;;4.45;1.80;;;;;;;;;;6236774;23;20011;-86
2023/07/21 09:23:46;;;;;;;3.03;1.83;;;;;;;;;;6159376;23;20042;-86
2023/07/21 09:27:35;;;;;;;2.35;1.60;;;;;;;;;;6085750;23;20018;-87
2023/07/21 09:29:28;;;;;;;2.20;1.80;;;;;;;;;;6161094;23;20023;-90
2023/07/21 09:32:16;;;;;;;2.50;1.70;;;;;;;;;;6204085;23;20003;-90
2023/07/21 09:34:54;;;;;;;2.75;1.52;;;;;;;;;;6228435;23;20074;-89
2023/07/21 09:37:25;;;;;;;3.95;1.40;;;;;;;;;;6227138;23;20008;-88
2023/07/21 09:40:01;;;;;;;2.25;1.50;;;;;;;;;;6201070;23;20023;-88
2023/07/21 09:42:29;;;;;;;2.47;1.42;;;;;;;;;;6227576;23;20271;-88
2023/07/21 09:44:57;;;;;;;3.67;1.30;;;;;;;;;;6226352;23;20015;-88
2023/07/21 09:47:43;;;;;;;2.10;1.48;;;;;;;;;;6201217;23;20067;-87
2023/07/21 09:50:18;;;;;;;2.67;1.50;;;;;;;;;;6252800;23;20012;-86
2023/07/21 09:52:49;;;;;;;9.20;1.60;;;;;;;;;;6228491;23;20020;-87
2023/07/21 09:55:26;;;;;;;1.48;1.20;;;;;;;;;;6226111;23;20095;-87
2023/07/21 09:57:54;;;;;;;1.65;1.15;;;;;;;;;;6224147;23;20004;-87
2023/07/21 10:00:20;;;;;;;2.17;1.38;;;;;;;;;;6226228;23;20019;-86
2023/07/21 10:02:58;;;;;;;4.28;1.20;;;;;;;;;;6229610;22;20078;-90
2023/07/21 10:05:32;;;;;;;4.20;1.40;;;;;;;;;;6193960;23;20027;-88
2023/07/21 10:08:01;;;;;;;1.95;1.48;;;;;;;;;;6195704;23;20021;-87
2023/07/21 10:10:30;;;;;;;2.67;1.83;;;;;;;;;;6194172;23;20047;-88
2023/07/21 10:13:07;;;;;;;2.10;1.30;;;;;;;;;;6193286;23;20011;-87
2023/07/21 10:15:35;;;;;;;2.33;1.55;;;;;;;;;;6193858;23;20009;-90
2023/07/21 10:18:14;;;;;;;3.83;1.50;;;;;;;;;;6196597;23;20020;-86
2023/07/21 10:20:52;;;;;;;3.10;1.58;;;;;;;;;;6191337;23;20004;-88
2023/07/21 10:23:30;;;;;;;1.42;1.20;;;;;;;;;;6191836;23;20004;-87
2023/07/21 10:25:59;;;;;;;1.65;1.38;;;;;;;;;;6190603;23;20016;-87
2023/07/21 10:28:33;;;;;;;1.92;1.30;;;;;;;;;;6191753;23;20009;-86
2023/07/21 10:31:19;;;;;;;3.67;1.58;;;;;;;;;;6216370;23;20052;-85
2023/07/21 10:34:02;;;;;;;1.57;1.07;;;;;;;;;;6189264;23;20040;-87
2023/07/21 10:36:39;;;;;;;1.42;1.08;;;;;;;;;;6189559;23;20500;-87
2023/07/21 10:39:10;;;;;;;2.05;1.52;;;;;;;;;;6213778;23;20016;-86
2023/07/21 10:41:39;;;;;;;1.85;1.17;;;;;;;;;;6214896;23;20008;-86
2023/07/21 10:44:08;;;;;;;1.65;1.10;;;;;;;;;;6189995;23;20043;-86
2023/07/21 10:46:41;;;;;;;1.73;1.02;;;;;;;;;;6217184;23;20012;-87
2023/07/21 10:49:10;;;;;;;2.58;1.20;;;;;;;;;;6186920;23;20012;-87
2023/07/21 10:51:53;;;;;;;2.92;1.30;;;;;;;;;;6193594;23;20004;-87
2023/07/21 10:54:21;;;;;;;3.20;1.42;;;;;;;;;;6169539;23;20019;-87
2023/07/21 10:56:51;;;;;;;1.52;1.35;;;;;;;;;;6168989;23;20035;-86
2023/07/21 10:59:20;;;;;;;2.78;1.27;;;;;;;;;;6188103;23;20012;-87
2023/07/21 11:01:47;;;;;;;4.05;1.70;;;;;;;;;;6189229;23;20019;-87
2023/07/21 11:04:30;;;;;;;1.83;1.40;;;;;;;;;;6212510;22;20028;-87
2023/07/21 11:07:04;;;;;;;1.67;1.40;;;;;;;;;;6249504;23;20012;-86
2023/07/21 11:09:33;;;;;;;6.63;1.75;;;;;;;;;;6221441;23;20020;-87
2023/07/21 11:12:07;;;;;;;6.07;1.98;;;;;;;;;;6201575;23;20097;-88
2023/07/21 11:14:35;;;;;;;2.63;1.70;;;;;;;;;;6228299;23;20051;-87
2023/07/21 11:17:07;;;;;;;3.20;1.70;;;;;;;;;;6203973;23;20004;-87
2023/07/21 11:19:39;;;;;;;2.40;1.63;;;;;;;;;;6226963;23;20023;-87
2023/07/21 11:22:11;;;;;;;2.40;1.83;;;;;;;;;;6229143;23;20012;-87
2023/07/21 11:24:39;;;;;;;1.85;1.20;;;;;;;;;;6205183;23;20019;-87
2023/07/21 11:27:08;;;;;;;3.03;1.70;;;;;;;;;;6229849;23;20037;-87
2023/07/21 11:29:43;;;;;;;2.22;1.92;;;;;;;;;;6228094;23;20008;-87
2023/07/21 11:32:19;;;;;;;4.80;1.43;;;;;;;;;;6231464;23;20245;-88
2023/07/21 11:34:46;;;;;;;4.25;1.55;;;;;;;;;;6230897;23;20299;-86
2023/07/21 11:37:17;;;;;;;10.35;2.03;;;;;;;;;;6230769;23;20060;-87
2023/07/21 11:39:58;;;;;;;2.38;1.67;;;;;;;;;;6207954;23;20076;-86
2023/07/21 11:42:29;;;;;;;2.47;1.60;;;;;;;;;;6256112;23;20011;-88
2023/07/21 11:44:55;;;;;;;2.45;1.85;;;;;;;;;;6203353;23;20023;-87
2023/07/21 11:47:24;;;;;;;3.85;1.60;;;;;;;;;;6203815;23;20016;-87
2023/07/21 11:49:55;;;;;;;3.38;2.15;;;;;;;;;;6208354;23;20004;-87
2023/07/21 11:52:24;;;;;;;3.25;2.55;;;;;;;;;;6201339;23;20012;-87
2023/07/21 11:55:12;;;;;;;9.70;1.80;;;;;;;;;;6210617;23;20067;-87
2023/07/21 11:57:42;;;;;;;3.75;1.88;;;;;;;;;;6228356;23;20052;-87
2023/07/21 12:00:13;;;;;;;4.82;2.00;;;;;;;;;;6204365;23;20032;-86
2023/07/21 12:02:41;;;;;;;5.22;1.92;;;;;;;;;;6224910;23;20007;-87
2023/07/21 12:05:14;;;;;;;3.25;1.75;;;;;;;;;;6231018;22;20023;-87
2023/07/21 12:07:42;;;;;;;10.13;1.73;;;;;;;;;;6221198;23;20016;-86
2023/07/21 12:10:10;;;;;;;2.03;1.83;;;;;;;;;;6200737;23;20062;-87
2023/07/21 12:12:37;;;;;;;5.68;1.85;;;;;;;;;;6222543;23;20624;-87
2023/07/21 12:15:11;;;;;;;2.78;1.80;;;;;;;;;;6197580;23;20497;-87
2023/07/21 12:18:13;;;;;;;1.92;1.73;;;;;;;;;;6231065;23;20008;-87
2023/07/21 12:21:00;;;;;;;2.45;1.77;;;;;;;;;;6230077;23;19995;-87
2023/07/21 12:23:50;;;;;;;5.10;2.50;;;;;;;;;;6263263;22;20390;-86
2023/07/21 12:26:29;;;;;;;6.38;2.10;;;;;;;;;;6234348;23;20004;-87
2023/07/21 12:32:07;;;;;;;5.35;2.55;;;;;;;;;;6213463;23;20005;-88
2023/07/21 12:37:47;;;;;;;9.63;3.53;;;;;;;;;;6261558;23;20334;-87
2023/07/21 12:40:21;;;;;;;10.20;3.25;;;;;;;;;;6203132;23;20032;-87
2023/07/21 12:43:26;;;;;;;12.00;3.60;;;;;;;;;;6237547;23;20004;-87
2023/07/21 12:45:54;;;;;;;8.70;4.00;;;;;;;;;;6207948;23;20595;-85
2023/07/21 12:48:21;;;;;;;6.30;3.47;;;;;;;;;;6225070;23;20015;-86
2023/07/21 12:50:55;;;;;;;3.53;2.80;;;;;;;;;;6202124;23;20008;-87
2023/07/21 12:53:53;;;;;;;4.97;2.70;;;;;;;;;;6207381;23;20004;-86
2023/07/21 12:56:30;;;;;;;7.28;3.25;;;;;;;;;;6240717;23;20526;-86
2023/07/21 12:58:58;;;;;;;8.27;3.72;;;;;;;;;;6261896;23;20303;-86
2023/07/21 13:01:57;;;;;;;;;;;;;;;;;;;;;
2023/07/21 13:04:15;;;;;;;5.00;3.05;;;;;;;;;;6230193;22;20009;-85
2023/07/21 13:06:42;;;;;;;9.98;2.83;;;;;;;;;;6195859;23;20061;-88
2023/07/21 13:09:10;;;;;;;8.13;3.22;;;;;;;;;;6191389;23;20013;-88
2023/07/21 13:11:36;;;;;;;4.63;2.40;;;;;;;;;;6193389;23;20008;-88
2023/07/21 13:14:03;;;;;;;4.82;2.03;;;;;;;;;;6189700;23;20639;-89
2023/07/21 13:16:29;;;;;;;4.15;2.33;;;;;;;;;;6166809;23;20039;-89
2023/07/21 13:18:57;;;;;;;7.35;1.98;;;;;;;;;;6193709;23;20439;-89
2023/07/21 13:21:24;;;;;;;4.75;2.40;;;;;;;;;;6193275;23;20012;-88
2023/07/21 13:23:50;;;;;;;3.97;1.83;;;;;;;;;;6196208;23;20012;-89
2023/07/21 13:26:17;;;;;;;6.20;2.20;;;;;;;;;;6194896;23;20083;-88
2023/07/21 13:28:43;;;;;;;8.77;2.30;;;;;;;;;;6196918;23;20040;-89
2023/07/21 13:31:09;;;;;;;4.00;2.33;;;;;;;;;;6192005;23;20614;-89
2023/07/21 13:33:36;;;;;;;3.42;2.22;;;;;;;;;;6192778;23;20369;-89
2023/07/21 13:36:05;;;;;;;4.50;2.65;;;;;;;;;;6191417;23;20325;-89
2023/07/21 13:38:31;;;;;;;3.65;2.40;;;;;;;;;;6193005;23;20024;-88
2023/07/21 13:40:58;;;;;;;5.35;2.90;;;;;;;;;;6188936;23;20451;-88
2023/07/21 13:43:25;;;;;;;6.65;2.85;;;;;;;;;;6189453;23;20047;-88
2023/07/21 13:45:51;;;;;;;12.90;3.53;;;;;;;;;;6190821;23;20009;-89
2023/07/21 13:48:18;;;;;;;6.13;3.22;;;;;;;;;;6190426;23;20026;-89
2023/07/21 13:50:46;;;;;;;4.25;2.50;;;;;;;;;;6193080;23;20008;-89
2023/07/21 13:53:15;;;;;;;4.72;2.75;;;;;;;;;;6197727;23;20005;-88
2023/07/21 13:55:49;;;;;;;19.45;5.72;;;;;;;;;;6191976;23;20088;-88
2023/07/21 13:58:15;;;;;;;6.90;3.15;;;;;;;;;;6188684;23;20036;-88
2023/07/21 14:00:42;;;;;;;7.65;3.03;;;;;;;;;;6190302;23;20016;-88
2023/07/21 14:03:08;;;;;;;6.95;2.72;;;;;;;;;;6187813;23;20013;-88
2023/07/21 14:05:37;;;;;;;5.60;2.63;;;;;;;;;;6204827;22;20020;-88
2023/07/21 14:08:05;;;;;;;6.03;2.95;;;;;;;;;;6218719;23;20012;-88
2023/07/21 14:10:38;;;;;;;6.97;2.70;;;;;;;;;;6222767;23;20018;-87
2023/07/21 14:13:04;;;;;;;9.32;2.95;;;;;;;;;;6219656;23;20346;-88
2023/07/21 14:15:31;;;;;;;5.47;2.90;;;;;;;;;;6219542;23;20028;-88
2023/07/21 14:17:57;;;;;;;4.93;3.08;;;;;;;;;;6219958;23;20005;-87
2023/07/21 14:20:23;;;;;;;4.47;2.80;;;;;;;;;;6194836;23;20342;-88
2023/07/21 14:23:02;;;;;;;4.18;2.72;;;;;;;;;;6195509;23;20043;-87
2023/07/21 14:26:09;;;;;;;5.83;3.07;;;;;;;;;;6228387;23;20511;-87
2023/07/21 14:28:36;;;;;;;6.28;2.53;;;;;;;;;;6205668;23;20028;-88
2023/07/21 14:31:04;;;;;;;4.05;2.53;;;;;;;;;;6201162;23;20405;-87
2023/07/21 14:33:36;;;;;;;4.07;2.72;;;;;;;;;;6207436;23;20004;-87
2023/07/21 14:36:02;;;;;;;4.75;2.80;;;;;;;;;;6195757;23;20039;-87
2023/07/21 14:38:35;;;;;;;5.80;3.33;;;;;;;;;;6196084;23;20678;-87
2023/07/21 14:41:10;;;;;;;5.00;2.78;;;;;;;;;;6223263;23;20011;-87
2023/07/21 14:44:02;;;;;;;4.70;2.73;;;;;;;;;;6199702;23;20661;-87
2023/07/21 14:46:29;;;;;;;4.22;2.53;;;;;;;;;;6217188;23;20008;-87
2023/07/21 14:48:55;;;;;;;7.55;3.88;;;;;;;;;;6218970;23;20008;-87
2023/07/21 14:51:23;;;;;;;6.10;3.55;;;;;;;;;;6205734;23;20012;-87
2023/07/21 14:53:50;;;;;;;8.05;3.20;;;;;;;;;;6228748;23;20008;-87
2023/07/21 14:56:20;;;;;;;9.30;4.53;;;;;;;;;;6201180;23;20031;-87
2023/07/21 14:58:46;;;;;;;9.15;3.88;;;;;;;;;;6194700;23;20008;-87
2023/07/21 15:01:13;;;;;;;6.70;4.15;;;;;;;;;;6202275;23;20031;-88
2023/07/21 15:03:54;;;;;;;7.88;4.20;;;;;;;;;;6205344;23;20035;-87
2023/07/21 15:06:22;;;;;;;7.82;4.22;;;;;;;;;;6229626;22;20046;-86
2023/07/21 15:08:49;;;;;;;11.82;5.25;;;;;;;;;;6194773;23;20016;-88
2023/07/21 15:11:16;;;;;;;10.70;4.80;;;;;;;;;;6246439;23;20422;-87
2023/07/21 15:13:45;;;;;;;7.85;4.90;;;;;;;;;;6192038;23;20405;-89
2023/07/21 15:16:11;;;;;;;10.95;3.90;;;;;;;;;;6218379;23;20010;-88
2023/07/21 15:18:40;;;;;;;9.90;5.00;;;;;;;;;;6219592;23;20443;-88
2023/07/21 15:21:12;;;;;;;8.45;4.53;;;;;;;;;;6194389;23;20008;-88
2023/07/21 15:23:40;;;;;;;9.68;4.75;;;;;;;;;;6195581;23;20008;-88
2023/07/21 15:26:07;;;;;;;7.38;4.22;;;;;;;;;;6216764;23;20011;-88
2023/07/21 15:28:33;;;;;;;15.45;4.40;;;;;;;;;;6218621;23;20546;-86
2023/07/21 15:31:06;;;;;;;9.13;4.47;;;;;;;;;;6193826;23;20015;-88
2023/07/21 15:33:32;;;;;;;9.40;4.85;;;;;;;;;;6219903;23;20035;-88
2023/07/21 15:35:59;;;;;;;9.05;5.40;;;;;;;;;;6245004;23;20425;-87
2023/07/21 15:38:25;;;;;;;9.55;5.20;;;;;;;;;;6194594;23;20066;-88
2023/07/21 15:40:51;;;;;;;11.68;6.10;;;;;;;;;;6190225;23;20034;-88
2023/07/21 15:43:18;;;;;;;11.00;6.00;;;;;;;;;;6195710;23;20004;-88